Mercer County Airport Bluefield US
ICAO: KBLF
IATA: BLF
Category: Medium
Scheduled Services: Yes

Elevation: 2857 ft
TransAlt. 18000 ft.

Airport Communications:
ASOS:132.725
INDIANAPOLIS CNTR:126.575
CTAF:122.9
ELKINS RDO:122.2

KBLF Zoom In..

If Map Doesn't Load, Click Here

Runways:

(A) RW 05 length 4743 ft width 100 ft
---- / hdg 49

(B) RW 23 length 4743 ft width 100 ft
ILS 109.50 / hdg 229

Location; KBLF
Day. 21 / Time. 14.52 Zulu
* Altimeter: 30.29
* Temperature: 23° c. 73.4°f.
* Wind from: 000° Speed 00 kn.
Dewpoint: 17° c.
Visibility: 5100 m.
Clouds: Broken 7000 ft.

KBLF 211452Z AUTO 00000KT BKN070 23/17 A3029 RMK AO2 SLP219 T02280172 51002 $


Wind - Calm.

 
 
jpsmedia.com for Web Design worldairports.se 2018   terms of use